KTCC

Tucumcari Municipal Airport

Tucumcari, New Mexico, USA
KTCC 171729Z 1718/1818 25014G22KT P6SM FEW250 FM180100 23011KT P6SM BKN200 FM180900 25018G28KT P6SM BKN150 FM181700 26030G40KT P6SM BKN120
Issued Valid From Valid To
Jan-17 @ 17:29 UTC
(6 hours ago)
Jan-17 @ 18:00 UTC
(5 hours ago)
Jan-18 @ 18:00 UTC
(in 19 hours)
Jan-17 @ 18:00 to Jan-18 @ 01:00
KTCC 171729Z 1718/1818 25014G22KT P6SM FEW250
Wind Visibility Clouds
250° at 14 knots
 Gusting to 22 knots
Greater than 6 miles
  • Few at 25,000' AGL
From Jan-18 @ 01:00 to Jan-18 @ 09:00
FM180100 23011KT P6SM BKN200
Wind Visibility Clouds
230° at 11 knots Greater than 6 miles
  • Broken at 20,000' AGL
From Jan-18 @ 09:00 to Jan-18 @ 17:00
FM180900 25018G28KT P6SM BKN150
Wind Visibility Clouds
250° at 18 knots
 Gusting to 28 knots
Greater than 6 miles
  • Broken at 15,000' AGL
From Jan-18 @ 17:00 to Jan-18 @ 18:00
FM181700 26030G40KT P6SM BKN120
Wind Visibility Clouds
260° at 30 knots
 Gusting to 40 knots
Greater than 6 miles
  • Broken at 12,000' AGL
KTCC 171729Z 1718/1818 25014G22KT P6SM FEW250 FM180100 23011KT P6SM BKN200 FM180900 25018G28KT P6SM BKN150 FM181700 26030G40KT P6SM BKN120
Issued Jan-17 @ 17:29 UTC
(6 hours ago)
Valid From Jan-17 @ 18:00 UTC
(5 hours ago)
Valid To Jan-18 @ 18:00 UTC
(in 19 hours)
Jan-17 @ 18:00 - Jan-18 @ 01:00
Wind Visibility
250° at 14 knots
 Gusting to 22 knots
Greater than 6 miles
Clouds
  • Few at 25,000' AGL
From Jan-18 @ 01:00 - Jan-18 @ 09:00
Wind Visibility
230° at 11 knots Greater than 6 miles
Clouds
  • Broken at 20,000' AGL
From Jan-18 @ 09:00 - Jan-18 @ 17:00
Wind Visibility
250° at 18 knots
 Gusting to 28 knots
Greater than 6 miles
Clouds
  • Broken at 15,000' AGL
From Jan-18 @ 17:00 - Jan-18 @ 18:00
Wind Visibility
260° at 30 knots
 Gusting to 40 knots
Greater than 6 miles
Clouds
  • Broken at 12,000' AGL